首页
METAR-TAF:

METAR-TAF

机场 :

科迪, 怀俄明州, 美国

纬度: 44-31N, 经度: 109-01W, 海拔: 1551米

当前天气观测

该预报发布于9分钟前的10:56 UTC
风速10节,风向
温度 -7°C
湿度 62%
气压 1014 hPa
能見度: 16.1公里
天空无云

METAR: KCOD 281056Z AUTO 17010KT 10SM CLR M07/M13 A2995 RMK AO2 SLP184 T10671128 FZRANO

时间: 04:05 (11:05 UTC)

预报

该预报发布于5小时和45分钟前的05:20 UTC
预报有效从28日的 06点(UTC)到 29日的 06点(UTC)
风速10节,风向西转西南
能見度: 10公里
少量云层高于20000英尺
从 28日的 1900点(UTC)
风速14节,风向西南,有时为20节阵风
能見度: 10公里
散云层高于12000英尺
从 29日的 0300点(UTC)
风速18节,风向西转西南,有时为28节阵风
能見度: 10公里
散云层高于12000英尺

TAF: KCOD 280520Z 2806/2906 24010KT P6SM FEW200 FM281900 23014G20KT P6SM SCT120 FM290300 24018G28KT P6SM SCT120

超过4000个机场的气象观测和天气预报(METAR&TAF报告)。

可查询的气象台以黄色和红色小点在地图上表示。

将鼠标移到小点上方,可查看气象台名称。

然后点击查看天气观测和预报。

如需切换地图:点击带黑十字的绿色按钮放大地图;点击带横线的绿色按钮缩小地图;或者点击绿色箭头查看邻近地区的地图。


METAR-TAF: